Time;durP1;ratioP1;P1;durP2;ratioP2;P2;SDS_P1;SDS_P2;PMS_P1;PMS_P2;Temp;Humidity;BMP_temperature;BMP_pressure;BME280_temperature;BME280_humidity;BME280_pressure;Samples;Min_cycle;Max_cycle;Signal;HPM_P1;HPM_P2
2022/05/02 00:01:11;;;;;;;12.55;6.68;;;10.90;99.90;;;;;;5209749;28;20029;-76
2022/05/02 00:03:42;;;;;;;10.70;6.60;;;10.80;99.90;;;;;;5210074;28;20052;-75
2022/05/02 00:06:13;;;;;;;12.07;6.80;;;10.80;99.90;;;;;;5208559;28;20057;-76
2022/05/02 00:08:44;;;;;;;16.67;7.50;;;10.80;99.90;;;;;;5209676;28;20071;-75
2022/05/02 00:11:15;;;;;;;14.13;6.72;;;10.70;99.90;;;;;;5209826;28;20026;-75
2022/05/02 00:13:45;;;;;;;15.40;7.25;;;10.70;99.90;;;;;;5208227;28;20477;-77
2022/05/02 00:16:16;;;;;;;12.75;7.18;;;10.70;99.90;;;;;;5208313;28;20033;-75
2022/05/02 00:30:32;;;;;;;13.30;7.30;;;10.70;99.90;;;;;;5308803;27;20907;-77
2022/05/02 00:33:02;;;;;;;15.18;7.78;;;10.80;99.90;;;;;;5308461;27;20072;-76
2022/05/02 00:35:33;;;;;;;12.13;6.93;;;10.70;99.90;;;;;;5308658;27;20031;-78
2022/05/02 00:38:05;;;;;;;13.50;7.60;;;10.70;99.90;;;;;;5308334;27;20560;-77
2022/05/02 00:40:36;;;;;;;15.15;6.93;;;10.70;99.90;;;;;;5308486;27;20041;-78
2022/05/02 00:43:07;;;;;;;14.43;8.02;;;10.80;99.90;;;;;;5308494;28;20090;-77
2022/05/02 00:45:38;;;;;;;10.85;7.80;;;10.80;99.90;;;;;;5308464;28;20497;-77
2022/05/02 00:48:09;;;;;;;16.02;8.35;;;10.70;99.90;;;;;;5308282;27;20378;-77
2022/05/02 00:50:42;;;;;;;15.57;8.40;;;10.80;99.90;;;;;;5308264;27;20032;-77
2022/05/02 00:53:19;;;;;;;15.25;9.65;;;10.90;99.90;;;;;;5289896;27;20062;-78
2022/05/02 00:55:50;;;;;;;16.48;8.23;;;10.80;99.90;;;;;;5308152;27;20027;-77
2022/05/02 00:58:21;;;;;;;14.38;9.18;;;10.90;99.90;;;;;;5308019;28;20134;-77
2022/05/02 01:00:52;;;;;;;21.30;9.63;;;10.80;99.90;;;;;;5308000;27;20102;-77
2022/05/02 01:03:22;;;;;;;11.35;8.45;;;10.90;99.90;;;;;;5307984;28;20103;-78
2022/05/02 01:08:43;;;;;;;13.63;9.17;;;10.80;99.90;;;;;;5308302;27;20034;-77
2022/05/02 01:11:14;;;;;;;19.10;10.00;;;10.80;99.90;;;;;;5307758;27;20470;-76
2022/05/02 01:13:47;;;;;;;14.68;9.18;;;10.70;99.90;;;;;;5307826;27;20016;-78
2022/05/02 01:16:27;;;;;;;21.38;9.52;;;10.70;99.90;;;;;;5307614;27;20027;-78
2022/05/02 01:19:01;;;;;;;19.90;9.57;;;10.80;99.90;;;;;;5307660;27;20067;-78
2022/05/02 01:21:32;;;;;;;14.30;8.52;;;10.90;99.90;;;;;;5288998;28;20462;-77
2022/05/02 01:24:04;;;;;;;13.18;8.73;;;10.80;99.90;;;;;;5307564;27;20076;-77
2022/05/02 01:26:37;;;;;;;14.15;8.88;;;10.80;99.90;;;;;;5307407;27;20031;-78
2022/05/02 01:29:07;;;;;;;14.75;8.73;;;10.80;99.90;;;;;;5306695;28;20051;-77
2022/05/02 01:31:39;;;;;;;16.42;9.55;;;10.90;99.90;;;;;;5292744;28;20344;-78
2022/05/02 01:34:10;;;;;;;18.27;9.23;;;10.80;99.90;;;;;;5275001;28;20514;-77
2022/05/02 01:36:43;;;;;;;16.92;9.48;;;10.80;99.90;;;;;;5274902;28;20055;-77
2022/05/02 01:39:13;;;;;;;13.13;9.15;;;10.80;99.90;;;;;;5293137;28;20490;-77
2022/05/02 01:41:44;;;;;;;16.80;8.77;;;10.90;99.90;;;;;;5293116;28;20028;-78
2022/05/02 01:44:15;;;;;;;15.75;8.77;;;10.90;99.90;;;;;;5292952;28;20144;-77
2022/05/02 01:46:46;;;;;;;16.85;7.95;;;10.80;99.90;;;;;;5293108;28;20031;-78
2022/05/02 01:49:17;;;;;;;13.90;8.70;;;10.90;99.90;;;;;;5292859;28;20344;-77
2022/05/02 01:51:48;;;;;;;16.65;9.13;;;10.90;99.90;;;;;;5274657;28;20023;-77
2022/05/02 01:54:19;;;;;;;11.88;8.43;;;10.80;99.90;;;;;;5292907;28;20024;-78
2022/05/02 01:56:51;;;;;;;16.63;8.82;;;10.80;99.90;;;;;;5292727;28;20024;-77
2022/05/02 01:59:22;;;;;;;14.20;8.48;;;10.90;99.90;;;;;;5292606;28;20082;-77
2022/05/02 02:01:53;;;;;;;13.38;7.75;;;10.80;99.90;;;;;;5292473;28;20016;-77
2022/05/02 02:07:14;;;;;;;11.95;8.38;;;10.80;99.90;;;;;;5292921;28;20493;-77
2022/05/02 02:09:45;;;;;;;15.27;8.40;;;10.90;99.90;;;;;;5292589;28;20038;-77
2022/05/02 02:12:16;;;;;;;20.77;8.90;;;10.80;99.90;;;;;;5292605;28;20429;-77
2022/05/02 02:14:47;;;;;;;16.88;8.60;;;11.00;99.90;;;;;;5292436;28;20031;-77
2022/05/02 02:17:18;;;;;;;13.50;8.05;;;11.00;99.90;;;;;;5292557;28;20352;-78
2022/05/02 02:19:49;;;;;;;16.48;8.65;;;11.00;99.90;;;;;;5274219;28;20050;-78
2022/05/02 02:22:19;;;;;;;17.27;9.07;;;11.00;99.90;;;;;;5292359;28;20027;-77
2022/05/02 02:24:50;;;;;;;14.55;8.15;;;11.20;99.90;;;;;;5292157;28;20019;-77
2022/05/02 02:27:22;;;;;;;14.70;8.35;;;11.00;99.90;;;;;;5292113;28;20509;-77
2022/05/02 02:29:52;;;;;;;14.48;8.80;;;11.00;99.90;;;;;;5291863;28;20066;-77
2022/05/02 02:32:23;;;;;;;15.02;8.35;;;11.00;99.90;;;;;;5291982;28;20394;-77
2022/05/02 02:34:54;;;;;;;11.52;8.27;;;11.10;99.90;;;;;;5291797;28;20056;-77
2022/05/02 02:37:25;;;;;;;17.05;8.60;;;11.00;99.90;;;;;;5292056;28;20027;-77
2022/05/02 02:40:00;;;;;;;14.60;8.52;;;11.00;99.90;;;;;;5291764;28;20094;-78
2022/05/02 02:42:36;;;;;;;12.60;7.95;;;11.10;99.90;;;;;;5272701;28;20371;-78
2022/05/02 02:45:12;;;;;;;11.70;7.60;;;11.00;99.90;;;;;;5291796;28;20020;-78
2022/05/02 02:47:48;;;;;;;13.55;8.57;;;11.00;99.90;;;;;;5291782;28;20023;-78
2022/05/02 02:50:23;;;;;;;15.43;8.43;;;11.10;99.90;;;;;;5291455;28;20035;-78
2022/05/02 02:52:53;;;;;;;15.75;8.15;;;11.00;99.90;;;;;;5273325;28;20019;-77
2022/05/02 02:55:24;;;;;;;13.50;8.70;;;11.00;99.90;;;;;;5291658;28;20554;-77
2022/05/02 02:57:55;;;;;;;16.55;8.52;;;11.00;99.90;;;;;;5291665;28;20024;-77
2022/05/02 03:00:26;;;;;;;16.50;8.68;;;11.00;99.90;;;;;;5291411;28;20476;-78
2022/05/02 03:02:58;;;;;;;15.38;8.70;;;11.00;99.90;;;;;;5291442;28;20493;-78
2022/05/02 03:08:18;;;;;;;14.65;7.97;;;11.00;99.90;;;;;;5292043;28;20039;-77
2022/05/02 03:10:49;;;;;;;15.13;8.05;;;11.10;99.90;;;;;;5291186;28;20024;-78
2022/05/02 03:13:19;;;;;;;15.57;7.90;;;11.10;99.90;;;;;;5291153;28;20351;-76
2022/05/02 03:15:50;;;;;;;17.20;9.85;;;11.00;99.90;;;;;;5291352;28;20076;-76
2022/05/02 03:18:22;;;;;;;60.15;11.32;;;11.10;99.90;;;;;;5291139;28;20039;-76
2022/05/02 03:20:53;;;;;;;21.15;9.90;;;11.00;99.90;;;;;;5290883;28;20020;-77
2022/05/02 03:23:23;;;;;;;21.17;11.13;;;10.90;99.90;;;;;;5291055;28;20039;-78
2022/05/02 03:25:54;;;;;;;16.13;9.73;;;11.10;99.90;;;;;;5290875;28;20047;-78
2022/05/02 03:28:25;;;;;;;20.10;10.18;;;11.10;99.90;;;;;;5290732;28;20047;-78
2022/05/02 03:30:56;;;;;;;17.08;9.48;;;11.00;99.90;;;;;;5291039;28;20403;-77
2022/05/02 03:33:27;;;;;;;16.38;9.18;;;11.00;99.90;;;;;;5290837;28;20019;-78
2022/05/02 03:35:58;;;;;;;16.13;9.27;;;11.00;99.90;;;;;;5290688;28;20024;-77
2022/05/02 03:38:29;;;;;;;18.08;10.50;;;11.10;99.90;;;;;;5290679;28;20035;-76
2022/05/02 03:40:59;;;;;;;23.67;12.90;;;11.20;99.90;;;;;;5290619;28;20016;-77
2022/05/02 03:43:32;;;;;;;21.52;11.27;;;11.00;99.90;;;;;;5290991;28;20102;-77
2022/05/02 03:46:03;;;;;;;17.00;12.00;;;11.00;99.90;;;;;;5290580;28;20027;-77
2022/05/02 03:48:34;;;;;;;20.45;11.60;;;11.00;99.90;;;;;;5290514;28;20467;-77
2022/05/02 03:51:05;;;;;;;16.52;10.30;;;10.90;99.90;;;;;;5290545;28;20023;-77
2022/05/02 03:53:35;;;;;;;18.05;9.98;;;11.10;99.90;;;;;;5290532;28;20112;-77
2022/05/02 03:56:06;;;;;;;15.00;9.23;;;11.20;99.90;;;;;;5290876;28;20019;-77
2022/05/02 03:58:37;;;;;;;13.75;10.13;;;11.10;99.90;;;;;;5272039;28;20062;-77
2022/05/02 04:01:08;;;;;;;19.45;10.77;;;11.10;99.90;;;;;;5290443;28;20024;-77
2022/05/02 04:03:39;;;;;;;17.48;9.02;;;11.10;99.90;;;;;;5290348;28;20116;-77
2022/05/02 04:06:09;;;;;;;14.02;9.43;;;11.10;99.90;;;;;;5290379;28;20016;-77
2022/05/02 04:08:40;;;;;;;15.68;10.00;;;11.00;99.90;;;;;;5272259;28;20046;-77
2022/05/02 04:11:11;;;;;;;21.20;9.63;;;11.10;99.90;;;;;;5290269;28;20111;-77
2022/05/02 04:13:42;;;;;;;16.38;9.13;;;11.20;99.90;;;;;;5290432;28;20127;-77
2022/05/02 04:16:13;;;;;;;12.07;8.25;;;11.10;99.90;;;;;;5272171;28;20478;-76
2022/05/02 04:18:45;;;;;;;15.82;9.25;;;11.10;99.90;;;;;;5290354;28;20051;-77
2022/05/02 04:21:16;;;;;;;19.58;8.70;;;11.20;99.90;;;;;;5290280;28;20024;-77
2022/05/02 04:23:47;;;;;;;17.60;8.88;;;11.30;99.90;;;;;;5290078;28;20099;-77
2022/05/02 04:26:18;;;;;;;14.30;8.07;;;11.20;99.90;;;;;;5271938;28;20032;-77
2022/05/02 04:28:49;;;;;;;11.20;7.10;;;11.30;99.90;;;;;;5289861;28;20077;-77
2022/05/02 04:31:20;;;;;;;14.93;8.90;;;11.30;99.90;;;;;;5290118;28;20114;-76
2022/05/02 04:33:51;;;;;;;13.23;7.85;;;11.40;99.90;;;;;;5290058;28;20820;-77
2022/05/02 04:36:22;;;;;;;13.10;8.13;;;11.40;99.90;;;;;;5290297;28;20051;-76
2022/05/02 04:38:53;;;;;;;12.27;8.23;;;11.50;99.90;;;;;;5289883;28;20071;-77
2022/05/02 04:41:23;;;;;;;17.17;8.15;;;11.30;99.90;;;;;;5289929;28;20038;-78
2022/05/02 04:43:55;;;;;;;11.00;7.25;;;11.40;99.90;;;;;;5290000;28;20148;-77
2022/05/02 04:46:26;;;;;;;12.05;6.82;;;11.50;99.90;;;;;;5271852;28;20402;-78
2022/05/02 04:48:57;;;;;;;13.05;7.75;;;11.40;99.90;;;;;;5289780;28;20102;-77
2022/05/02 04:51:28;;;;;;;13.45;7.20;;;11.40;99.90;;;;;;5271457;28;20441;-76
2022/05/02 04:53:59;;;;;;;17.42;9.80;;;11.40;99.90;;;;;;5289641;28;20028;-77
2022/05/02 04:56:30;;;;;;;13.68;8.50;;;11.50;99.90;;;;;;5289818;28;20070;-77
2022/05/02 04:59:01;;;;;;;20.73;8.35;;;11.50;99.90;;;;;;5289660;28;20512;-77
2022/05/02 05:01:31;;;;;;;13.73;8.93;;;11.50;99.90;;;;;;5271506;28;20016;-78
2022/05/02 05:04:02;;;;;;;15.55;8.73;;;11.50;99.90;;;;;;5289598;28;20443;-77
2022/05/02 05:06:33;;;;;;;38.45;18.48;;;11.50;99.90;;;;;;5293257;28;20024;-78
2022/05/02 05:09:04;;;;;;;34.88;16.48;;;11.70;99.90;;;;;;5275280;28;20027;-77
2022/05/02 05:12:13;;;;;;;17.70;10.57;;;11.60;99.90;;;;;;5293649;28;20473;-78
2022/05/02 05:18:30;;;;;;;12.48;7.93;;;11.70;99.90;;;;;;5289385;28;20035;-78
2022/05/02 05:21:33;;;;;;;12.13;7.57;;;11.70;99.90;;;;;;5271803;28;20030;-77
2022/05/02 05:24:10;;;;;;;19.00;8.60;;;11.70;99.90;;;;;;5257805;28;20114;-78
2022/05/02 05:26:52;;;;;;;14.70;8.23;;;11.80;99.90;;;;;;5293457;28;20024;-76
2022/05/02 05:29:38;;;;;;;13.32;7.82;;;12.00;99.90;;;;;;5292955;28;20047;-78
2022/05/02 05:32:47;;;;;;;15.27;9.43;;;11.90;99.90;;;;;;5293362;28;20441;-77
2022/05/02 05:35:57;;;;;;;33.88;20.42;;;12.00;99.90;;;;;;5285246;28;20378;-78
2022/05/02 05:39:02;;;;;;;25.95;15.38;;;11.90;99.90;;;;;;5271992;28;20032;-77
2022/05/02 05:41:45;;;;;;;25.63;16.48;;;12.00;99.90;;;;;;5253875;28;20055;-77
2022/05/02 05:44:41;;;;;;;12.88;8.20;;;12.10;99.90;;;;;;5271887;28;20249;-78
2022/05/02 05:47:33;;;;;;;9.77;7.05;;;12.20;99.90;;;;;;5272209;28;20475;-81
2022/05/02 05:50:15;;;;;;;10.65;6.65;;;12.30;99.90;;;;;;5271895;28;20059;-78
2022/05/02 05:53:03;;;;;;;13.00;9.45;;;12.20;99.90;;;;;;5271695;28;20403;-77
2022/05/02 05:56:02;;;;;;;13.07;9.05;;;12.40;99.90;;;;;;5255160;28;20035;-78
2022/05/02 05:58:45;;;;;;;10.25;5.85;;;12.50;99.90;;;;;;5271545;28;20043;-78
2022/05/02 06:01:35;;;;;;;8.75;5.63;;;12.50;99.90;;;;;;5271686;28;20036;-77
2022/05/02 06:04:09;;;;;;;11.38;7.18;;;12.40;99.90;;;;;;5253450;28;20489;-78
2022/05/02 06:06:40;;;;;;;9.32;5.57;;;12.40;99.90;;;;;;5271475;28;20028;-77
2022/05/02 06:09:13;;;;;;;9.63;5.68;;;12.40;99.90;;;;;;5271500;28;20027;-76
2022/05/02 06:11:48;;;;;;;12.13;7.30;;;12.70;99.90;;;;;;5271061;28;20035;-77
2022/05/02 06:14:25;;;;;;;11.48;6.65;;;12.60;99.90;;;;;;5271552;28;20500;-78
2022/05/02 06:19:48;;;;;;;9.23;6.55;;;12.60;99.90;;;;;;5271069;28;20039;-77
2022/05/02 06:22:19;;;;;;;11.00;6.05;;;12.50;99.90;;;;;;5271345;28;20063;-76
2022/05/02 06:24:52;;;;;;;8.43;5.97;;;12.60;99.90;;;;;;5271059;28;20051;-78
2022/05/02 06:27:24;;;;;;;9.43;5.50;;;12.80;99.90;;;;;;5271087;28;20063;-78
2022/05/02 06:29:55;;;;;;;7.35;5.53;;;12.90;99.90;;;;;;5252566;28;20052;-77
2022/05/02 06:32:29;;;;;;;15.25;5.78;;;13.00;99.90;;;;;;5270974;28;20429;-77
2022/05/02 06:35:00;;;;;;;8.65;5.22;;;12.90;99.90;;;;;;5271116;28;20069;-77
2022/05/02 06:37:41;;;;;;;11.55;7.10;;;13.30;99.90;;;;;;5271008;28;20032;-77
2022/05/02 06:40:33;;;;;;;10.00;6.22;;;13.80;99.90;;;;;;5270593;28;20032;-78
2022/05/02 06:43:17;;;;;;;11.32;5.25;;;13.60;99.90;;;;;;5270738;28;20024;-77
2022/05/02 06:46:17;;;;;;;7.68;3.97;;;14.10;99.90;;;;;;5270862;28;20032;-77
2022/05/02 06:48:48;;;;;;;4.85;3.33;;;14.10;99.90;;;;;;5270695;28;20032;-77
2022/05/02 06:51:27;;;;;;;13.02;3.60;;;13.70;99.90;;;;;;5270349;28;20028;-78
2022/05/02 06:54:10;;;;;;;5.03;3.67;;;13.80;99.90;;;;;;5270690;28;20032;-76
2022/05/02 06:56:52;;;;;;;5.93;3.60;;;14.20;99.90;;;;;;5270388;28;20034;-76
2022/05/02 06:59:48;;;;;;;4.22;3.10;;;14.00;99.90;;;;;;5270297;28;20055;-79
2022/05/02 07:02:43;;;;;;;4.72;3.22;;;14.10;99.90;;;;;;5270307;28;20016;-78
2022/05/02 07:05:41;;;;;;;4.45;3.17;;;14.40;99.90;;;;;;5270581;28;20027;-79
2022/05/02 07:08:36;;;;;;;5.32;3.28;;;14.00;99.90;;;;;;5286491;28;20429;-77
2022/05/02 07:11:12;;;;;;;5.57;3.90;;;13.80;99.90;;;;;;5255215;28;20122;-78
2022/05/02 07:14:14;;;;;;;6.82;3.15;;;13.60;99.90;;;;;;5272126;28;20107;-79
2022/05/02 07:16:51;;;;;;;8.50;3.92;;;13.90;99.90;;;;;;5270165;28;20352;-77
2022/05/02 07:19:49;;;;;;;5.32;3.50;;;13.80;99.90;;;;;;5269931;28;20043;-79
2022/05/02 07:22:32;;;;;;;7.13;3.88;;;14.10;99.90;;;;;;5269940;28;20106;-78
2022/05/02 07:25:13;;;;;;;4.53;3.95;;;14.20;99.90;;;;;;5270044;28;20047;-78
2022/05/02 07:28:04;;;;;;;6.22;4.40;;;13.70;99.90;;;;;;5269426;28;20420;-78
2022/05/02 07:30:35;;;;;;;8.35;4.65;;;14.20;99.90;;;;;;5228277;28;20079;-78
2022/05/02 07:33:08;;;;;;;8.35;4.80;;;14.60;99.90;;;;;;5228080;28;20408;-78
2022/05/02 07:35:40;;;;;;;9.35;5.57;;;14.20;99.90;;;;;;5228140;28;20029;-78
2022/05/02 07:38:15;;;;;;;9.27;5.10;;;13.80;99.90;;;;;;5227971;28;20464;-79
2022/05/02 07:41:32;;;;;;;6.35;5.10;;;13.80;99.90;;;;;;5226682;28;20484;-81
2022/05/02 07:43:41;;;;;;;11.88;5.15;;;13.70;99.90;;;;;;5224091;28;20036;-80
2022/05/02 07:46:13;;;;;;;9.80;5.05;;;14.20;99.90;;;;;;5228056;28;20037;-79
2022/05/02 07:48:44;;;;;;;10.68;5.75;;;14.70;99.90;;;;;;5227998;28;20051;-79
2022/05/02 07:51:16;;;;;;;7.97;5.75;;;14.00;99.90;;;;;;5226700;28;20037;-80
2022/05/02 07:53:50;;;;;;;12.07;5.82;;;13.50;99.90;;;;;;5227905;28;20373;-80
2022/05/02 07:56:24;;;;;;;7.05;4.20;;;14.30;99.90;;;;;;5210013;28;20124;-79
2022/05/02 07:58:55;;;;;;;6.75;4.50;;;14.20;99.90;;;;;;5227493;28;20037;-77
2022/05/02 08:01:26;;;;;;;8.57;4.80;;;13.90;99.90;;;;;;5227601;28;20119;-76
2022/05/02 08:03:56;;;;;;;12.25;5.22;;;13.90;99.90;;;;;;5234410;28;20116;-78
2022/05/02 08:06:53;;;;;;;10.38;5.47;;;14.40;99.90;;;;;;5248418;28;20353;-77
2022/05/02 08:09:51;;;;;;;10.82;4.90;;;14.50;99.90;;;;;;5248262;28;20031;-77
2022/05/02 08:12:34;;;;;;;8.32;4.47;;;14.60;99.90;;;;;;5248252;28;20032;-77
2022/05/02 08:15:20;;;;;;;7.75;4.88;;;14.10;99.90;;;;;;5243423;28;20032;-78
2022/05/02 08:18:13;;;;;;;10.85;4.45;;;14.30;99.90;;;;;;5248497;28;20454;-79
2022/05/02 08:20:51;;;;;;;10.13;5.22;;;14.90;99.90;;;;;;5248177;28;20033;-78
2022/05/02 08:30:03;;;;;;;10.82;5.07;;;15.50;99.90;;;;;;5276871;28;20066;-77
2022/05/02 08:33:07;;;;;;;9.75;3.95;;;15.70;99.90;;;;;;5284588;28;20085;-78
2022/05/02 08:36:16;;;;;;;7.05;3.85;;;15.70;99.90;;;;;;5281589;28;20122;-78
2022/05/02 08:39:07;;;;;;;8.80;4.70;;;15.30;99.90;;;;;;5250678;28;20043;-77
2022/05/02 08:41:51;;;;;;;6.15;3.70;;;15.90;99.90;;;;;;5293555;28;20032;-80
2022/05/02 08:45:06;;;;;;;8.68;4.63;;;16.20;99.90;;;;;;5293497;28;20023;-80
2022/05/02 08:47:46;;;;;;;10.45;5.07;;;16.10;99.90;;;;;;5294337;28;20031;-78
2022/05/02 08:50:59;;;;;;;8.52;5.05;;;16.50;99.90;;;;;;5294294;28;20378;-78
2022/05/02 08:54:09;;;;;;;8.30;4.20;;;16.10;99.90;;;;;;5266579;28;20038;-82
2022/05/02 08:56:58;;;;;;;7.50;4.47;;;16.20;99.90;;;;;;5294003;28;20062;-79
2022/05/02 08:59:54;;;;;;;6.47;3.53;;;16.20;99.90;;;;;;5293585;28;20043;-79
2022/05/02 09:02:59;;;;;;;7.28;4.57;;;16.30;99.90;;;;;;5293972;28;20028;-77
2022/05/02 09:05:50;;;;;;;7.88;5.05;;;16.00;99.90;;;;;;5293819;28;20110;-78
2022/05/02 09:08:21;;;;;;;11.90;3.72;;;16.10;99.90;;;;;;5280102;28;20035;-80
2022/05/02 09:11:12;;;;;;;8.02;3.75;;;15.80;99.90;;;;;;5272456;28;20020;-77
2022/05/02 09:14:21;;;;;;;7.82;5.75;;;16.70;99.90;;;;;;5272742;28;20069;-79
2022/05/02 09:17:16;;;;;;;10.50;7.22;;;16.50;99.90;;;;;;5254570;28;20469;-77
2022/05/02 09:20:04;;;;;;;10.40;6.28;;;17.10;99.90;;;;;;5290725;28;20034;-77
2022/05/02 09:23:02;;;;;;;9.60;3.55;;;16.40;99.90;;;;;;5293691;28;20048;-79
2022/05/02 09:25:54;;;;;;;7.25;4.63;;;16.90;99.90;;;;;;5293795;28;20069;-77
2022/05/02 09:28:43;;;;;;;8.55;4.03;;;16.60;99.90;;;;;;5293202;28;20036;-78
2022/05/02 09:31:35;;;;;;;8.20;4.47;;;16.60;99.90;;;;;;5275077;28;20031;-79
2022/05/02 09:34:16;;;;;;;11.18;7.57;;;16.70;99.90;;;;;;5293331;28;20486;-77
2022/05/02 09:37:01;;;;;;;12.75;7.88;;;16.80;99.90;;;;;;5292926;28;20016;-79
2022/05/02 09:39:37;;;;;;;15.18;10.35;;;16.90;99.90;;;;;;5293319;28;20027;-78
2022/05/02 09:42:14;;;;;;;9.75;4.55;;;17.50;99.90;;;;;;5293094;28;20016;-77
2022/05/02 09:51:08;;;;;;;7.97;3.25;;;17.40;99.90;;;;;;5292773;28;20046;-79
2022/05/02 09:53:52;;;;;;;9.00;3.38;;;17.50;99.90;;;;;;5293080;28;20068;-79
2022/05/02 09:56:39;;;;;;;6.78;3.35;;;17.60;99.90;;;;;;5293192;28;20052;-78
2022/05/02 09:59:28;;;;;;;9.73;2.80;;;17.40;99.90;;;;;;5292676;28;20044;-79
2022/05/02 10:02:05;;;;;;;7.53;2.92;;;17.10;99.90;;;;;;5292752;28;20037;-79
2022/05/02 10:04:54;;;;;;;6.60;3.50;;;17.70;99.90;;;;;;5292873;28;20041;-80
2022/05/02 10:07:26;;;;;;;6.83;3.57;;;17.80;99.90;;;;;;5292736;28;20443;-79
2022/05/02 10:10:16;;;;;;;5.38;3.70;;;17.30;99.90;;;;;;5292578;28;20446;-79
2022/05/02 10:13:24;;;;;;;4.53;2.22;;;17.50;99.90;;;;;;5292690;28;20027;-79
2022/05/02 10:16:33;;;;;;;7.53;4.20;;;16.50;99.90;;;;;;5235931;28;20035;-77
2022/05/02 10:19:28;;;;;;;10.02;3.42;;;16.90;99.90;;;;;;5257482;28;20054;-79
2022/05/02 10:22:30;;;;;;;7.78;4.00;;;16.90;99.90;;;;;;5292363;28;20051;-78
2022/05/02 10:25:42;;;;;;;9.77;6.90;;;17.10;99.90;;;;;;5250209;28;20040;-78
2022/05/02 10:28:40;;;;;;;5.95;2.72;;;16.80;99.90;;;;;;5239854;28;20459;-78
2022/05/02 10:31:17;;;;;;;14.18;8.38;;;16.50;99.90;;;;;;5273879;28;20168;-78
2022/05/02 10:33:51;;;;;;;5.90;2.60;;;16.90;99.90;;;;;;5292076;28;20410;-78
2022/05/02 10:36:36;;;;;;;11.70;8.63;;;16.80;99.90;;;;;;5277687;28;20403;-80
2022/05/02 10:39:38;;;;;;;5.75;3.50;;;17.10;99.90;;;;;;5270968;28;20031;-80
2022/05/02 10:42:10;;;;;;;9.50;3.35;;;17.00;99.90;;;;;;5252831;28;20031;-79
2022/05/02 10:45:01;;;;;;;9.93;3.65;;;17.10;99.90;;;;;;5271019;28;20016;-78
2022/05/02 10:47:53;;;;;;;9.00;3.53;;;17.30;99.90;;;;;;5271090;28;20024;-78
2022/05/02 10:50:32;;;;;;;7.78;3.83;;;17.30;99.90;;;;;;5252501;28;20039;-77
2022/05/02 10:53:26;;;;;;;9.85;3.15;;;17.70;99.90;;;;;;5270780;28;20020;-78
2022/05/02 10:56:21;;;;;;;4.63;2.42;;;17.90;99.90;;;;;;5270735;28;20083;-80
2022/05/02 10:58:54;;;;;;;7.95;3.33;;;17.40;99.90;;;;;;5252374;28;20131;-78
2022/05/02 11:02:00;;;;;;;10.13;3.80;;;17.10;99.90;;;;;;5270398;28;20055;-78
2022/05/02 11:04:46;;;;;;;7.07;4.22;;;16.90;99.90;;;;;;5269842;28;20024;-80
2022/05/02 11:07:28;;;;;;;4.88;2.70;;;17.00;99.90;;;;;;5270482;28;20403;-80
2022/05/02 11:10:04;;;;;;;16.52;6.53;;;17.00;99.90;;;;;;5252272;28;20050;-78
2022/05/02 11:12:42;;;;;;;15.20;7.22;;;17.10;99.90;;;;;;5252214;28;20020;-78
2022/05/02 11:15:51;;;;;;;6.82;2.80;;;16.70;99.90;;;;;;5270208;28;20070;-80
2022/05/02 11:22:19;;;;;;;9.93;5.25;;;16.80;99.90;;;;;;5270349;28;20036;-80
2022/05/02 11:24:59;;;;;;;11.48;5.20;;;16.70;99.90;;;;;;5270065;28;20059;-77
2022/05/02 11:27:57;;;;;;;19.17;8.23;;;16.90;99.90;;;;;;5270590;28;20481;-80
2022/05/02 11:30:31;;;;;;;9.63;6.53;;;17.00;99.90;;;;;;5287852;28;20132;-79
2022/05/02 11:33:12;;;;;;;5.25;2.70;;;17.60;99.90;;;;;;5287533;28;20050;-79
2022/05/02 11:35:54;;;;;;;8.48;4.68;;;17.20;99.90;;;;;;5278400;28;20028;-78
2022/05/02 11:38:56;;;;;;;7.32;4.47;;;17.10;99.90;;;;;;5269049;28;20032;-78
2022/05/02 11:41:29;;;;;;;10.27;2.83;;;16.80;99.90;;;;;;5260787;28;20070;-80
2022/05/02 11:44:11;;;;;;;7.70;3.10;;;16.80;99.90;;;;;;5269079;28;20032;-80
2022/05/02 11:46:55;;;;;;;8.35;2.63;;;16.90;99.90;;;;;;5269167;28;20051;-80
2022/05/02 11:49:29;;;;;;;7.38;2.20;;;16.20;99.90;;;;;;5268960;28;20356;-78
2022/05/02 11:52:04;;;;;;;6.63;2.65;;;17.10;99.90;;;;;;5269277;28;20035;-77
2022/05/02 11:54:37;;;;;;;11.30;2.50;;;16.70;99.90;;;;;;5269533;28;20024;-77
2022/05/02 11:57:22;;;;;;;7.55;3.65;;;16.50;99.90;;;;;;5269295;28;20028;-78
2022/05/02 12:00:05;;;;;;;8.40;4.07;;;16.30;99.90;;;;;;5268924;28;20044;-76
2022/05/02 12:02:45;;;;;;;4.53;3.15;;;16.70;99.90;;;;;;5269250;28;20407;-77
2022/05/02 12:05:25;;;;;;;9.55;3.50;;;16.50;99.90;;;;;;5269263;28;20020;-76
2022/05/02 12:07:59;;;;;;;5.32;3.20;;;16.70;99.90;;;;;;5269123;28;20039;-76
2022/05/02 12:10:41;;;;;;;9.85;4.13;;;16.90;99.90;;;;;;5269207;28;20048;-75
2022/05/02 12:13:17;;;;;;;7.50;4.05;;;16.50;99.90;;;;;;5269275;28;20024;-76
2022/05/02 12:15:59;;;;;;;9.15;2.78;;;16.50;99.90;;;;;;5268638;28;20020;-76
2022/05/02 12:18:53;;;;;;;24.88;6.55;;;16.50;99.90;;;;;;5268505;28;20024;-76
2022/05/02 12:21:39;;;;;;;114.93;19.60;;;16.30;99.90;;;;;;5268602;28;20157;-79
2022/05/02 12:24:12;;;;;;;8.95;2.75;;;16.90;99.90;;;;;;5269246;28;20110;-82
2022/05/02 12:26:51;;;;;;;9.20;3.42;;;16.20;99.90;;;;;;5269177;28;20518;-78
2022/05/02 12:29:23;;;;;;;4.77;2.50;;;16.80;99.90;;;;;;5268804;28;20060;-78
2022/05/02 12:32:03;;;;;;;10.75;5.55;;;16.50;99.90;;;;;;5269246;28;20475;-81
2022/05/02 12:34:39;;;;;;;11.23;6.37;;;16.40;99.90;;;;;;5269190;28;20035;-77
2022/05/02 12:37:28;;;;;;;9.30;4.65;;;16.40;99.90;;;;;;5269262;28;20070;-79
2022/05/02 12:40:11;;;;;;;22.70;6.22;;;16.20;99.90;;;;;;5268819;28;20118;-77
2022/05/02 12:42:44;;;;;;;94.82;15.43;;;16.30;99.90;;;;;;5268801;28;20099;-82
2022/05/02 12:45:18;;;;;;;23.75;4.75;;;16.30;99.90;;;;;;5268979;28;20460;-85
2022/05/02 12:47:52;;;;;;;14.82;5.57;;;16.30;99.90;;;;;;5268799;28;20108;-76
2022/05/02 12:50:28;;;;;;;9.40;2.80;;;16.50;99.90;;;;;;5268737;28;20028;-80
2022/05/02 12:53:10;;;;;;;8.00;2.53;;;16.20;99.90;;;;;;5269068;28;20476;-79
2022/05/02 12:55:42;;;;;;;6.38;3.08;;;16.20;99.90;;;;;;5268900;28;20503;-92
2022/05/02 13:01:05;;;;;;;10.25;3.30;;;16.40;99.90;;;;;;5268961;28;20066;-84
2022/05/02 13:03:40;;;;;;;8.77;3.42;;;16.40;99.90;;;;;;5268865;28;20020;-77
2022/05/02 13:06:12;;;;;;;9.15;3.38;;;16.30;99.90;;;;;;5269192;28;20028;-76
2022/05/02 13:08:43;;;;;;;9.13;3.95;;;16.00;99.90;;;;;;5268378;28;20024;-87
2022/05/02 13:11:20;;;;;;;7.13;2.88;;;16.10;99.90;;;;;;5268489;28;20368;-76
2022/05/02 13:13:56;;;;;;;4.55;2.22;;;16.10;99.90;;;;;;5268561;28;20039;-76
2022/05/02 13:16:30;;;;;;;5.32;2.17;;;15.90;99.90;;;;;;5268515;28;20043;-78
2022/05/02 13:19:04;;;;;;;11.05;4.55;;;15.90;99.90;;;;;;5268410;28;20070;-90
2022/05/02 13:21:35;;;;;;;6.32;3.72;;;16.40;99.90;;;;;;5268243;28;20101;-90
2022/05/02 13:24:12;;;;;;;7.03;2.35;;;16.30;99.90;;;;;;5268677;28;20657;-77
2022/05/02 13:27:03;;;;;;;8.05;2.95;;;16.40;99.90;;;;;;5270340;28;20020;-79
2022/05/02 13:29:43;;;;;;;10.65;2.72;;;16.00;99.90;;;;;;5272074;28;20491;-81
2022/05/02 13:32:23;;;;;;;12.18;4.28;;;16.00;99.90;;;;;;5272687;28;20150;-76
2022/05/02 13:34:53;;;;;;;;;;;16.10;99.90;;;;;;5274483;28;20056;-90
2022/05/02 13:37:33;;;;;;;6.90;2.92;;;15.90;99.90;;;;;;5272835;28;20401;-90
2022/05/02 13:40:08;;;;;;;4.75;3.30;;;15.90;99.90;;;;;;5272419;28;20032;-76
2022/05/02 13:43:06;;;;;;;10.38;3.75;;;16.10;99.90;;;;;;5272573;28;20024;-86
2022/05/02 13:45:42;;;;;;;7.93;3.75;;;16.00;99.90;;;;;;5272249;28;20036;-87
2022/05/02 13:48:25;;;;;;;12.32;3.65;;;15.80;99.90;;;;;;5272171;28;20031;-77
2022/05/02 13:51:18;;;;;;;5.90;2.40;;;16.40;99.90;;;;;;5272441;28;20463;-77
2022/05/02 13:53:52;;;;;;;5.75;2.42;;;16.80;99.90;;;;;;5272280;28;20024;-77
2022/05/02 13:56:48;;;;;;;9.25;2.50;;;16.70;99.90;;;;;;5272100;28;20024;-76
2022/05/02 13:59:30;;;;;;;4.82;2.80;;;16.10;99.90;;;;;;5271574;28;20056;-76
2022/05/02 14:02:19;;;;;;;9.55;4.75;;;15.70;99.90;;;;;;5271334;28;20046;-75
2022/05/02 14:04:54;;;;;;;5.53;2.90;;;15.70;99.90;;;;;;5271554;28;20032;-77
2022/05/02 14:07:25;;;;;;;6.00;2.30;;;16.00;99.90;;;;;;5271450;28;20012;-88
2022/05/02 14:09:59;;;;;;;8.40;5.20;;;15.80;99.90;;;;;;5271477;28;20026;-76
2022/05/02 14:12:34;;;;;;;10.30;6.78;;;15.40;99.90;;;;;;5271486;28;20028;-76
2022/05/02 14:15:09;;;;;;;6.60;3.00;;;15.40;99.90;;;;;;5271333;28;20016;-89
2022/05/02 14:17:46;;;;;;;7.82;2.67;;;15.50;99.90;;;;;;5275453;28;20032;-88
2022/05/02 14:20:29;;;;;;;6.57;3.55;;;15.40;99.90;;;;;;5291935;28;20120;-78
2022/05/02 14:23:02;;;;;;;8.35;3.67;;;15.90;99.90;;;;;;5292310;28;20098;-77
2022/05/02 14:25:38;;;;;;;5.82;3.40;;;15.40;99.90;;;;;;5265599;28;20020;-77
2022/05/02 14:28:12;;;;;;;6.75;3.85;;;15.10;99.90;;;;;;5270816;28;20032;-76